Time;durP1;ratioP1;P1;durP2;ratioP2;P2;SDS_P1;SDS_P2;PMS_P1;PMS_P2;Temp;Humidity;BMP_temperature;BMP_pressure;BME280_temperature;BME280_humidity;BME280_pressure;Samples;Min_cycle;Max_cycle;Signal;HPM_P1;HPM_P2
2021/01/16 00:00:54;;;;;;;11.32;7.45;;;0.30;79.60;;;-0.86;65.14;95271.53;5020963;28;20223;-83
2021/01/16 00:03:22;;;;;;;10.82;7.18;;;0.30;79.60;;;-0.88;65.25;95263.13;5020578;28;20207;-82
2021/01/16 00:05:51;;;;;;;11.13;7.43;;;0.30;79.60;;;-0.93;65.39;95259.22;5054251;28;20224;-83
2021/01/16 00:08:22;;;;;;;9.70;6.53;;;0.30;79.60;;;-0.87;65.33;95272.44;5053118;28;20265;-83
2021/01/16 00:10:55;;;;;;;12.05;7.07;;;0.30;79.60;;;-0.89;65.25;95263.19;5017640;28;20282;-83
2021/01/16 00:13:33;;;;;;;11.57;7.20;;;0.30;79.60;;;-0.86;65.25;95270.72;5051432;28;20196;-83
2021/01/16 00:16:03;;;;;;;12.02;7.63;;;0.30;79.60;;;-0.89;65.11;95266.63;5054438;28;20336;-83
2021/01/16 00:18:31;;;;;;;11.35;6.90;;;0.40;79.70;;;-0.86;65.15;95266.38;5053478;28;20666;-83
2021/01/16 00:20:59;;;;;;;12.70;7.35;;;0.30;79.60;;;-0.90;65.34;95256.44;5037079;28;20246;-82
2021/01/16 00:23:28;;;;;;;12.35;7.65;;;0.30;79.50;;;-0.88;65.36;95264.84;5054076;28;20246;-83
2021/01/16 00:25:56;;;;;;;12.68;7.90;;;0.30;79.50;;;-0.93;65.29;95262.59;5037325;28;20219;-82
2021/01/16 00:28:28;;;;;;;12.13;7.15;;;0.30;79.50;;;-0.93;65.22;95262.59;5036113;28;20206;-83
2021/01/16 00:30:57;;;;;;;13.30;7.68;;;0.30;79.60;;;-0.90;65.28;95267.53;5037315;28;20224;-82
2021/01/16 00:33:30;;;;;;;11.48;7.22;;;0.30;79.60;;;-0.91;65.17;95267.66;5036488;28;20235;-83
2021/01/16 00:35:58;;;;;;;12.55;7.88;;;0.30;79.60;;;-0.93;65.32;95259.22;5053517;28;20238;-83
2021/01/16 00:38:26;;;;;;;12.10;7.22;;;0.40;79.70;;;-0.93;65.25;95254.06;5020034;28;20226;-83
2021/01/16 00:40:54;;;;;;;11.77;7.72;;;0.30;79.60;;;-0.93;65.47;95261.78;5036962;28;20306;-82
2021/01/16 00:43:21;;;;;;;10.48;7.22;;;0.30;79.50;;;-0.94;65.15;95255.84;5036674;28;20237;-83
2021/01/16 00:45:50;;;;;;;10.23;7.30;;;0.30;79.60;;;-0.93;65.23;95272.91;5035931;28;20224;-83
2021/01/16 00:48:23;;;;;;;10.73;6.82;;;0.30;79.60;;;-0.97;65.34;95262.00;5035907;28;20203;-83
2021/01/16 00:50:55;;;;;;;13.70;8.27;;;0.30;79.50;;;-0.93;65.24;95275.47;5020383;28;20235;-82
2021/01/16 00:53:28;;;;;;;12.52;7.35;;;0.30;79.60;;;-0.98;65.54;95267.28;5037756;28;20249;-82
2021/01/16 00:55:59;;;;;;;11.75;7.80;;;0.30;79.60;;;-0.98;65.46;95267.28;5053366;28;20315;-83
2021/01/16 00:58:29;;;;;;;11.10;7.57;;;0.30;79.60;;;-0.94;65.12;95275.59;5053100;28;20200;-83
2021/01/16 01:01:14;;;;;;;10.43;7.05;;;0.30;79.70;;;-1.01;64.97;95268.31;5039668;28;20596;-82
2021/01/16 01:03:44;;;;;;;12.57;7.40;;;0.30;79.70;;;-0.93;65.51;95280.63;5033800;28;20221;-82
2021/01/16 01:06:11;;;;;;;11.90;7.45;;;0.30;79.60;;;-0.95;65.37;95279.94;5041027;28;20228;-83
2021/01/16 01:08:38;;;;;;;10.23;6.80;;;0.30;79.70;;;-0.92;65.23;95276.31;5036044;28;20207;-82
2021/01/16 01:11:05;;;;;;;12.32;7.43;;;0.30;79.60;;;-0.95;65.50;95277.38;5036753;28;20224;-83
2021/01/16 01:13:32;;;;;;;12.73;7.80;;;0.30;79.70;;;-1.00;65.27;95280.28;5036792;28;20227;-83
2021/01/16 01:15:59;;;;;;;13.30;8.38;;;0.30;79.70;;;-1.02;65.39;95296.75;5051918;28;20211;-83
2021/01/16 01:18:26;;;;;;;11.63;7.57;;;0.30;79.70;;;-1.03;65.56;95285.63;5035994;28;20204;-82
2021/01/16 01:20:53;;;;;;;11.20;6.88;;;0.30;79.70;;;-1.03;65.97;95290.78;5052696;28;20219;-83
2021/01/16 01:23:20;;;;;;;11.88;7.20;;;0.20;79.60;;;-1.10;65.38;95275.91;5052908;28;20202;-82
2021/01/16 01:25:46;;;;;;;10.60;7.47;;;0.20;79.60;;;-1.04;65.47;95281.44;5035029;28;20215;-83
2021/01/16 01:28:13;;;;;;;10.25;6.45;;;0.20;79.60;;;-1.03;65.30;95284.81;5036282;28;20207;-83
2021/01/16 01:30:40;;;;;;;10.18;6.55;;;0.20;79.60;;;-1.04;65.33;95289.16;5036318;28;20233;-82
2021/01/16 01:33:15;;;;;;;9.52;6.90;;;0.20;79.60;;;-1.09;65.34;95267.25;5035309;28;20336;-82
2021/01/16 01:35:43;;;;;;;10.43;7.10;;;0.20;79.50;;;-1.11;65.37;95277.66;5052042;28;20219;-82
2021/01/16 01:38:17;;;;;;;11.95;7.22;;;0.20;79.60;;;-1.12;65.46;95273.44;5052390;28;20613;-82
2021/01/16 01:40:45;;;;;;;11.70;6.90;;;0.20;79.50;;;-1.11;65.58;95285.38;5052259;28;20314;-82
2021/01/16 01:43:13;;;;;;;11.73;7.32;;;0.20;79.60;;;-1.17;65.27;95276.34;5052274;28;20557;-82
2021/01/16 01:45:41;;;;;;;11.32;7.30;;;0.20;79.60;;;-1.20;65.33;95271.41;5051312;28;20241;-82
2021/01/16 01:48:09;;;;;;;10.93;6.85;;;0.10;79.50;;;-1.17;65.54;95281.50;5035361;28;20267;-82
2021/01/16 01:50:36;;;;;;;11.05;6.55;;;0.10;79.50;;;-1.15;65.48;95286.53;5051913;28;20220;-82
2021/01/16 01:53:04;;;;;;;10.35;6.47;;;0.10;79.50;;;-1.21;65.40;95269.78;5035719;28;20228;-83
2021/01/16 01:55:34;;;;;;;11.15;6.72;;;0.10;79.50;;;-1.17;65.41;95284.06;5034660;28;20701;-83
2021/01/16 01:58:08;;;;;;;9.52;6.18;;;0.10;79.50;;;-1.19;65.33;95285.91;5036536;28;20195;-83
2021/01/16 02:00:35;;;;;;;13.38;7.68;;;0.10;79.60;;;-1.21;65.39;95282.66;5051116;28;20211;-82
2021/01/16 02:03:04;;;;;;;11.20;6.85;;;0.10;79.50;;;-1.22;65.63;95280.16;5035723;28;20302;-83
2021/01/16 02:05:31;;;;;;;10.98;6.85;;;0.00;79.40;;;-1.22;65.54;95277.59;5052196;28;20222;-82
2021/01/16 02:07:59;;;;;;;10.82;7.05;;;0.00;79.50;;;-1.24;65.44;95271.75;5018887;28;20203;-83
2021/01/16 02:10:26;;;;;;;12.18;7.05;;;0.00;79.50;;;-1.26;65.51;95258.16;5050735;28;20311;-83
2021/01/16 02:12:56;;;;;;;10.38;7.05;;;0.00;79.50;;;-1.25;65.48;95275.25;5035556;28;20697;-82
2021/01/16 02:15:57;;;;;;;11.95;7.30;;;0.00;79.50;;;-1.29;65.52;95270.31;5051806;28;20216;-82
2021/01/16 02:18:45;;;;;;;13.23;7.30;;;0.00;79.40;;;-1.30;65.34;95273.81;5034558;28;20275;-82
2021/01/16 02:21:18;;;;;;;9.50;6.20;;;0.00;79.50;;;-1.36;65.75;95269.09;5042051;28;20224;-83
2021/01/16 02:24:23;;;;;;;11.13;6.85;;;0.00;79.50;;;-1.31;65.48;95277.34;5035115;28;20188;-82
2021/01/16 02:27:22;;;;;;;12.25;6.50;;;0.00;79.50;;;-1.33;65.53;95260.34;5004774;28;20279;-82
2021/01/16 02:29:51;;;;;;;10.85;6.45;;;0.00;79.60;;;-1.31;65.44;95273.94;5067679;28;20223;-83
2021/01/16 02:32:19;;;;;;;9.10;6.10;;;0.00;79.60;;;-1.30;65.37;95275.56;5051572;28;20228;-82
2021/01/16 02:34:48;;;;;;;10.75;6.72;;;0.00;79.60;;;-1.34;65.48;95269.03;5034793;28;20781;-82
2021/01/16 02:37:49;;;;;;;10.98;7.00;;;0.00;79.60;;;-1.31;65.36;95269.63;5018512;28;20192;-82
2021/01/16 02:40:31;;;;;;;11.23;6.38;;;0.00;79.60;;;-1.35;65.92;95270.75;5050514;28;20692;-82
2021/01/16 02:43:20;;;;;;;10.30;6.55;;;-0.10;79.50;;;-1.34;65.38;95274.97;5048620;28;20327;-83
2021/01/16 02:46:10;;;;;;;8.82;5.85;;;-0.10;79.50;;;-1.33;65.58;95279.19;5067126;28;20215;-83
2021/01/16 02:49:02;;;;;;;9.60;6.30;;;-0.10;79.50;;;-1.33;65.66;95280.94;5051331;28;20192;-83
2021/01/16 02:51:52;;;;;;;10.88;6.15;;;-0.10;79.50;;;-1.34;65.66;95272.41;5048219;28;20240;-82
2021/01/16 02:54:21;;;;;;;9.98;6.45;;;-0.10;79.50;;;-1.41;65.80;95266.06;5053427;28;20203;-82
2021/01/16 02:56:48;;;;;;;10.15;6.03;;;-0.10;79.60;;;-1.34;65.58;95262.09;5050301;28;20449;-82
2021/01/16 02:59:15;;;;;;;10.43;5.70;;;-0.10;80.40;;;-1.35;65.47;95257.91;5051507;28;20203;-83
2021/01/16 03:01:43;;;;;;;8.30;5.63;;;0.00;79.70;;;-1.31;65.69;95267.06;5048188;28;20204;-82
2021/01/16 03:04:10;;;;;;;11.13;6.75;;;-0.10;79.60;;;-1.35;65.77;95254.50;5048130;28;20193;-83
2021/01/16 03:06:47;;;;;;;9.63;6.13;;;-0.10;79.60;;;-1.34;65.66;95259.53;5030431;28;20200;-82
2021/01/16 03:09:14;;;;;;;10.48;6.45;;;-0.10;79.60;;;-1.34;65.59;95261.31;5053103;28;20203;-82
2021/01/16 03:11:44;;;;;;;10.50;6.13;;;-0.10;79.60;;;-1.36;65.72;95260.59;5070462;28;20242;-81
2021/01/16 03:14:18;;;;;;;9.20;5.78;;;0.00;79.60;;;-1.36;65.57;95265.72;5019299;28;20345;-82
2021/01/16 03:17:15;;;;;;;10.10;6.07;;;-0.10;79.40;;;-1.38;65.43;95252.97;5035252;28;20752;-81
2021/01/16 03:19:47;;;;;;;10.32;6.00;;;-0.10;79.50;;;-1.38;65.01;95258.13;5052043;28;20286;-82
2021/01/16 03:22:28;;;;;;;9.70;5.95;;;-0.10;79.50;;;-1.38;65.56;95265.84;5052274;28;20199;-82
2021/01/16 03:24:57;;;;;;;8.65;5.88;;;-0.20;79.40;;;-1.41;65.45;95266.06;5053361;28;20212;-82
2021/01/16 03:27:25;;;;;;;11.65;5.85;;;-0.10;79.60;;;-1.42;65.69;95251.53;5084646;28;20290;-82
2021/01/16 03:29:53;;;;;;;10.90;6.50;;;-0.10;79.60;;;-1.39;65.55;95263.34;5036284;28;20311;-81
2021/01/16 03:32:21;;;;;;;11.63;6.03;;;-0.20;79.50;;;-1.41;65.33;95260.09;5054167;28;20227;-82
2021/01/16 03:34:50;;;;;;;8.38;5.63;;;-0.20;79.50;;;-1.41;65.29;95258.34;5032671;28;20235;-82
2021/01/16 03:37:18;;;;;;;11.02;6.53;;;-0.20;79.60;;;-1.37;65.48;95258.94;5050661;28;20572;-83
2021/01/16 03:39:49;;;;;;;10.98;6.35;;;-0.20;79.60;;;-1.36;65.45;95260.59;5052829;28;20459;-83
2021/01/16 03:42:16;;;;;;;9.18;6.00;;;-0.20;79.50;;;-1.40;65.59;95262.56;5036122;28;20254;-83
2021/01/16 03:44:43;;;;;;;10.02;7.03;;;-0.20;79.50;;;-1.37;65.35;95256.38;5052126;28;20261;-82
2021/01/16 03:47:10;;;;;;;10.30;6.70;;;-0.20;79.60;;;-1.39;65.42;95255.66;5053536;28;20220;-83
2021/01/16 03:49:37;;;;;;;10.77;7.05;;;-0.20;79.60;;;-1.42;65.54;95254.09;5054252;28;20778;-83
2021/01/16 03:52:05;;;;;;;11.45;7.05;;;-0.20;79.50;;;-1.43;65.50;95255.03;5038125;28;20259;-83
2021/01/16 03:54:32;;;;;;;10.73;6.38;;;-0.20;79.50;;;-1.45;65.45;95260.31;5052351;28;20274;-83
2021/01/16 03:56:59;;;;;;;10.18;6.15;;;-0.20;79.40;;;-1.45;65.35;95257.72;5035965;28;20214;-83
2021/01/16 03:59:26;;;;;;;9.43;6.03;;;-0.20;79.40;;;-1.43;65.28;95278.19;5052457;28;20261;-83
2021/01/16 04:01:53;;;;;;;11.52;7.00;;;-0.20;79.50;;;-1.48;65.16;95263.09;5035439;28;20269;-83
2021/01/16 04:04:20;;;;;;;8.80;6.00;;;-0.30;79.10;;;-1.48;65.29;95262.28;5035342;28;20232;-82
2021/01/16 04:06:47;;;;;;;10.55;5.75;;;-0.20;79.40;;;-1.52;65.23;95248.81;5036215;28;20631;-82
2021/01/16 04:09:14;;;;;;;8.82;5.68;;;-0.30;79.30;;;-1.53;65.39;95265.16;5037038;28;20200;-82
2021/01/16 04:11:41;;;;;;;9.52;6.07;;;-0.30;79.30;;;-1.56;65.13;95252.53;5053107;28;20310;-83
2021/01/16 04:14:08;;;;;;;8.93;6.20;;;-0.30;79.20;;;-1.64;65.08;95259.97;5037749;28;20235;-83
2021/01/16 04:16:34;;;;;;;7.97;5.40;;;-0.40;78.90;;;-1.63;65.52;95264.19;5053411;28;20224;-82
2021/01/16 04:19:02;;;;;;;11.43;6.20;;;-0.40;79.10;;;-1.66;65.04;95252.38;5051695;28;20200;-83
2021/01/16 04:21:29;;;;;;;10.52;5.75;;;-0.40;79.10;;;-1.73;65.14;95255.47;5051187;28;20222;-82
2021/01/16 04:23:56;;;;;;;9.32;5.47;;;-0.40;79.10;;;-1.68;65.13;95264.50;5051067;28;20632;-81
2021/01/16 04:26:23;;;;;;;9.77;5.85;;;-0.40;79.20;;;-1.70;65.23;95262.97;5050306;28;20652;-82
2021/01/16 04:28:50;;;;;;;10.85;6.22;;;-0.40;79.30;;;-1.73;65.19;95271.72;5052322;28;20429;-82
2021/01/16 04:31:17;;;;;;;7.93;5.70;;;-0.40;79.30;;;-1.70;65.17;95263.78;5028304;28;20243;-82
2021/01/16 04:33:45;;;;;;;9.02;5.50;;;-0.40;79.30;;;-1.74;65.34;95257.22;5050830;28;20206;-81
2021/01/16 04:36:12;;;;;;;11.70;6.93;;;-0.50;79.20;;;-1.73;64.85;95265.75;5051901;28;20259;-82
2021/01/16 04:38:38;;;;;;;9.27;5.55;;;-0.50;79.20;;;-1.72;65.20;95263.09;5033104;28;20200;-81
2021/01/16 04:41:06;;;;;;;9.15;5.55;;;-0.50;79.30;;;-1.72;65.06;95259.69;5050780;28;20220;-83
2021/01/16 04:43:33;;;;;;;12.02;6.78;;;-0.50;79.30;;;-1.77;65.29;95268.53;5049230;28;20960;-82
2021/01/16 04:46:05;;;;;;;9.98;6.15;;;-0.50;79.10;;;-1.75;65.30;95270.19;5049980;28;20285;-82
2021/01/16 04:48:35;;;;;;;8.65;5.97;;;-0.50;79.30;;;-1.78;65.72;95263.53;5017133;28;20225;-82
2021/01/16 04:51:03;;;;;;;10.93;6.53;;;-0.50;79.30;;;-1.81;65.33;95261.16;5028289;28;20211;-82
2021/01/16 04:53:40;;;;;;;9.55;6.00;;;-0.50;79.30;;;-1.82;65.28;95257.78;5048988;28;20204;-82
2021/01/16 04:56:09;;;;;;;9.18;6.07;;;-0.50;79.40;;;-1.80;65.29;95247.38;5013875;28;20215;-81
2021/01/16 04:58:40;;;;;;;9.30;6.25;;;-0.50;79.40;;;-1.83;65.50;95250.97;5051405;28;20689;-81
2021/01/16 05:01:09;;;;;;;11.88;7.05;;;-0.50;79.40;;;-1.78;65.39;95255.81;5034130;28;20247;-82
2021/01/16 05:03:41;;;;;;;10.90;6.65;;;-0.50;79.40;;;-1.77;65.31;95257.41;5033401;28;20199;-82
2021/01/16 05:06:14;;;;;;;11.57;6.32;;;-0.50;79.40;;;-1.77;65.27;95257.41;5048936;28;20226;-82
2021/01/16 05:08:44;;;;;;;9.05;5.60;;;-0.50;79.50;;;-1.80;65.52;95253.31;5049636;28;20289;-82
2021/01/16 05:11:24;;;;;;;11.88;7.35;;;-0.50;79.40;;;-1.77;65.46;95254.84;5045828;28;20725;-82
2021/01/16 05:14:17;;;;;;;12.32;7.65;;;-0.50;79.20;;;-1.82;65.41;95254.34;5058222;28;20204;-82
2021/01/16 05:16:55;;;;;;;10.50;6.63;;;-0.50;79.20;;;-1.80;65.28;95261.03;5038334;28;20204;-82
2021/01/16 05:19:31;;;;;;;10.60;6.32;;;-0.50;79.30;;;-1.79;65.21;95267.00;5045125;28;20557;-82
2021/01/16 05:21:59;;;;;;;10.40;6.78;;;-0.60;79.30;;;-1.81;65.63;95256.84;5040387;28;20478;-84
2021/01/16 05:24:26;;;;;;;11.48;6.90;;;-0.50;79.40;;;-1.79;65.48;95262.69;5036853;28;20291;-83
2021/01/16 05:26:53;;;;;;;12.95;7.03;;;-0.50;79.40;;;-1.79;65.48;95257.53;5033013;28;20208;-82
2021/01/16 05:29:23;;;;;;;11.43;6.90;;;-0.50;79.40;;;-1.84;65.34;95251.09;5049410;28;20196;-82
2021/01/16 05:31:56;;;;;;;10.35;6.93;;;-0.50;79.40;;;-1.77;65.45;95257.41;5032349;28;20224;-82
2021/01/16 05:34:26;;;;;;;11.23;7.22;;;-0.50;79.40;;;-1.78;65.33;95260.94;5050269;28;20238;-82
2021/01/16 05:36:54;;;;;;;11.82;7.18;;;-0.50;79.40;;;-1.78;65.31;95259.19;5033178;28;20202;-82
2021/01/16 05:39:28;;;;;;;11.35;7.50;;;-0.50;79.40;;;-1.83;65.01;95237.28;5029022;28;20745;-82
2021/01/16 05:42:04;;;;;;;13.15;7.97;;;-0.50;79.40;;;-1.77;65.25;95260.00;5034364;28;20217;-82
2021/01/16 05:44:33;;;;;;;9.98;6.53;;;-0.50;79.30;;;-1.83;65.35;95250.13;5048940;28;20216;-83
2021/01/16 05:47:00;;;;;;;10.88;7.10;;;-0.50;79.40;;;-1.78;65.39;95260.94;5051544;28;20207;-83
2021/01/16 05:49:27;;;;;;;11.38;7.45;;;-0.60;79.30;;;-1.83;65.23;95252.72;5051172;28;20223;-82
2021/01/16 05:51:54;;;;;;;12.18;7.68;;;-0.50;79.40;;;-1.82;65.45;95257.78;5034361;28;20622;-83
2021/01/16 05:54:29;;;;;;;15.00;7.88;;;-0.60;79.30;;;-1.84;65.47;95266.53;5034040;28;20200;-82
2021/01/16 05:56:57;;;;;;;12.30;7.95;;;-0.60;79.30;;;-1.88;65.22;95267.63;5051643;28;20210;-82
2021/01/16 05:59:31;;;;;;;11.45;7.38;;;-0.60;79.30;;;-1.85;65.32;95278.53;5050074;28;20468;-83
2021/01/16 06:02:02;;;;;;;12.23;7.00;;;-0.60;79.30;;;-1.90;65.46;95277.19;5051574;28;20192;-83
2021/01/16 06:04:33;;;;;;;10.20;7.18;;;-0.60;79.20;;;-1.88;65.38;95273.63;5034302;28;20596;-83
2021/01/16 06:07:07;;;;;;;13.60;7.75;;;-0.60;79.40;;;-1.89;65.20;95276.28;5035798;28;20200;-83
2021/01/16 06:09:39;;;;;;;11.75;7.63;;;-0.60;79.30;;;-1.89;65.39;95273.72;5018098;28;20228;-83
2021/01/16 06:12:11;;;;;;;11.10;7.32;;;-0.60;79.30;;;-1.89;65.16;95284.81;5035069;28;20611;-84
2021/01/16 06:14:43;;;;;;;10.45;7.07;;;-0.60;79.30;;;-1.89;65.48;95276.28;5018223;28;20709;-83
2021/01/16 06:17:13;;;;;;;12.15;7.55;;;-0.50;79.30;;;-1.91;65.21;95278.16;5034604;28;20211;-83
2021/01/16 06:19:47;;;;;;;13.55;8.55;;;-0.60;79.30;;;-1.95;65.28;95273.22;5046295;28;20324;-82
2021/01/16 06:22:17;;;;;;;11.27;7.60;;;-0.60;79.30;;;-1.94;65.15;95285.13;5066968;28;20199;-82
2021/01/16 06:24:49;;;;;;;13.50;8.55;;;-0.60;79.30;;;-1.96;65.12;95289.56;5051139;28;20212;-82
2021/01/16 06:27:25;;;;;;;12.25;8.20;;;-0.60;79.20;;;-1.98;65.20;95282.88;5034639;28;20196;-82
2021/01/16 06:30:01;;;;;;;13.18;8.30;;;-0.70;79.20;;;-1.99;65.00;95294.94;5034463;28;20220;-82
2021/01/16 06:32:29;;;;;;;11.80;8.30;;;-0.70;79.10;;;-1.99;65.22;95291.50;5035119;28;20219;-83
2021/01/16 06:35:11;;;;;;;10.43;6.70;;;-0.70;79.20;;;-2.00;65.16;95298.41;5030523;28;20297;-83
2021/01/16 06:37:51;;;;;;;13.57;7.78;;;-0.70;79.20;;;-1.98;65.26;95308.59;5067599;28;20673;-83
2021/01/16 06:40:27;;;;;;;12.18;6.97;;;-0.70;80.00;;;-2.02;65.49;95305.41;5054460;28;20213;-83
2021/01/16 06:42:55;;;;;;;11.07;7.45;;;-0.70;79.00;;;-2.05;65.18;95308.19;5067723;28;20206;-83
2021/01/16 06:45:26;;;;;;;11.52;7.45;;;-0.70;79.20;;;-2.09;65.47;95306.75;5038738;28;20227;-83
2021/01/16 06:47:59;;;;;;;11.25;7.43;;;-0.70;79.20;;;-2.06;65.37;95303.13;5053761;28;20233;-83
2021/01/16 06:50:28;;;;;;;10.80;7.07;;;-0.70;79.10;;;-2.08;65.17;95310.16;5054239;28;20215;-83
2021/01/16 06:52:55;;;;;;;9.77;6.75;;;-0.80;79.10;;;-2.09;65.32;95311.88;5037573;28;20212;-83
2021/01/16 06:55:22;;;;;;;11.30;6.90;;;-0.80;79.10;;;-2.17;65.30;95298.72;5054516;28;20685;-82
2021/01/16 06:57:49;;;;;;;9.15;6.43;;;-0.80;79.10;;;-2.12;65.12;95310.34;5036421;28;20232;-83
2021/01/16 07:00:17;;;;;;;11.90;6.43;;;-0.80;79.10;;;-2.10;65.17;95311.06;5033107;28;21540;-85
2021/01/16 07:02:48;;;;;;;9.82;6.60;;;-0.80;79.10;;;-2.12;64.87;95309.53;5020319;28;20196;-82
2021/01/16 07:05:16;;;;;;;11.85;7.32;;;-0.80;79.10;;;-2.12;65.27;95318.06;5047906;28;20215;-83
2021/01/16 07:07:48;;;;;;;10.35;6.45;;;-0.80;79.20;;;-2.13;64.81;95313.03;5075539;28;20301;-82
2021/01/16 07:10:30;;;;;;;10.95;7.00;;;-0.80;79.10;;;-2.18;65.04;95315.91;5053485;28;20314;-84
2021/01/16 07:12:59;;;;;;;9.50;6.28;;;-0.80;79.10;;;-2.15;65.51;95322.59;5023659;28;20681;-84
2021/01/16 07:15:29;;;;;;;11.85;7.05;;;-0.80;79.20;;;-2.20;65.05;95322.06;5036136;28;20259;-84
2021/01/16 07:17:59;;;;;;;9.77;6.50;;;-0.80;79.10;;;-2.18;64.94;95320.22;5045119;28;20258;-83
2021/01/16 07:20:28;;;;;;;8.82;5.72;;;-0.90;78.70;;;-2.25;65.30;95317.25;5053095;28;20716;-83
2021/01/16 07:23:00;;;;;;;9.38;6.65;;;-0.90;78.90;;;-2.29;65.13;95316.63;5040463;28;20219;-87
2021/01/16 07:25:27;;;;;;;10.43;6.25;;;-0.80;79.00;;;-2.22;65.18;95321.34;5036829;28;20215;-83
2021/01/16 07:27:56;;;;;;;9.20;6.18;;;-0.90;78.90;;;-2.23;65.13;95333.38;5037887;28;20258;-82
2021/01/16 07:30:26;;;;;;;8.65;5.85;;;-0.90;79.00;;;-2.21;65.24;95328.97;5035732;28;20254;-83
2021/01/16 07:32:53;;;;;;;10.10;6.93;;;-0.90;79.00;;;-2.21;65.10;95336.69;5071587;28;20224;-83
2021/01/16 07:35:26;;;;;;;11.02;6.82;;;-0.90;79.10;;;-2.22;64.86;95336.75;5043057;28;20236;-83
2021/01/16 07:37:54;;;;;;;9.30;6.32;;;-0.90;78.90;;;-2.22;65.09;95341.91;5033505;28;20246;-83
2021/01/16 07:40:31;;;;;;;10.00;6.15;;;-0.90;78.90;;;-2.26;65.12;95342.13;5020040;28;20224;-84
2021/01/16 07:43:16;;;;;;;8.73;6.18;;;-0.90;78.90;;;-2.33;65.00;95334.91;5053535;28;20204;-84
2021/01/16 07:45:49;;;;;;;9.10;6.00;;;-0.90;78.80;;;-2.31;64.87;95328.75;5035719;28;20313;-85
2021/01/16 07:48:21;;;;;;;10.60;6.10;;;-1.00;78.70;;;-2.28;65.17;95335.44;5052154;28;20200;-85
2021/01/16 07:50:52;;;;;;;9.32;5.97;;;-1.00;78.80;;;-2.27;64.89;95334.50;5026145;28;20265;-83
2021/01/16 07:53:30;;;;;;;8.93;5.93;;;-1.00;78.90;;;-2.27;65.01;95335.34;5035697;28;20247;-84
2021/01/16 07:56:17;;;;;;;7.57;5.57;;;-0.90;79.00;;;-2.28;64.92;95331.13;5037717;28;20660;-83
2021/01/16 07:59:15;;;;;;;9.98;6.57;;;-0.90;79.00;;;-2.20;64.69;95338.31;5051127;28;20472;-84
2021/01/16 08:02:26;;;;;;;10.70;6.72;;;-0.90;79.10;;;-2.21;64.93;95339.25;5068892;28;20191;-83
2021/01/16 08:05:19;;;;;;;10.65;6.80;;;-0.90;78.90;;;-2.20;64.95;95335.72;5034909;28;20215;-82
2021/01/16 08:08:14;;;;;;;10.52;6.72;;;-0.90;78.90;;;-2.25;64.77;95348.06;5035651;28;20203;-84
2021/01/16 08:10:43;;;;;;;10.02;6.40;;;-0.90;79.00;;;-2.29;64.93;95331.22;5049632;28;20245;-83
2021/01/16 08:13:11;;;;;;;9.93;6.85;;;-0.90;78.60;;;-2.29;64.87;95333.78;5051617;28;20212;-83
2021/01/16 08:15:42;;;;;;;11.32;6.85;;;-0.90;78.60;;;-2.29;64.90;95326.09;5035122;28;20243;-83
2021/01/16 08:18:20;;;;;;;10.70;6.82;;;-1.00;78.50;;;-2.35;65.00;95326.50;5035758;28;20271;-81
2021/01/16 08:20:49;;;;;;;10.48;6.35;;;-1.00;78.30;;;-2.33;64.66;95329.78;5047082;28;20216;-84
2021/01/16 08:23:25;;;;;;;9.02;5.90;;;-1.00;78.50;;;-2.32;64.77;95334.00;5050973;28;20564;-83
2021/01/16 08:25:57;;;;;;;8.20;5.82;;;-1.00;79.40;;;-2.32;64.91;95328.84;5038225;28;20308;-83
2021/01/16 08:28:26;;;;;;;9.02;5.93;;;-1.00;78.80;;;-2.25;65.00;95348.06;5038608;28;20204;-83
2021/01/16 08:30:53;;;;;;;9.57;6.15;;;-1.00;78.90;;;-2.22;65.01;95335.03;5032849;28;20224;-83
2021/01/16 08:33:34;;;;;;;9.77;6.93;;;-1.00;79.10;;;-2.13;65.13;95343.88;5023319;28;20231;-83
2021/01/16 08:36:18;;;;;;;8.70;6.35;;;-0.90;78.90;;;-2.10;64.72;95349.63;5030039;28;823072;-84
2021/01/16 08:38:48;;;;;;;8.88;6.22;;;-0.90;79.00;;;-2.12;64.69;95342.94;5059068;28;20203;-83
2021/01/16 08:41:26;;;;;;;9.30;6.45;;;-0.80;79.10;;;-2.03;64.71;95351.78;5036624;28;20215;-83
2021/01/16 08:43:59;;;;;;;9.18;6.25;;;-0.90;79.70;;;-2.00;64.62;95341.28;5053079;28;20242;-84
2021/01/16 08:46:30;;;;;;;9.57;6.40;;;-0.80;78.70;;;-2.00;64.67;95354.13;5019672;28;20216;-83
2021/01/16 08:49:10;;;;;;;9.88;6.28;;;-0.80;78.80;;;-2.03;64.41;95337.16;5052161;28;20200;-83
2021/01/16 08:51:38;;;;;;;8.10;5.57;;;-0.80;78.50;;;-1.96;64.76;95351.25;5063246;28;20282;-84
2021/01/16 08:54:19;;;;;;;8.65;6.07;;;-0.80;78.80;;;-1.94;64.34;95338.31;5070189;28;20215;-84
2021/01/16 08:56:59;;;;;;;10.07;6.97;;;-0.80;79.60;;;-1.89;64.59;95336.25;5033524;28;20555;-83
2021/01/16 08:59:32;;;;;;;10.13;6.50;;;-0.70;78.90;;;-1.75;64.66;95342.19;5061776;28;20297;-80
2021/01/16 09:02:13;;;;;;;11.07;7.00;;;-0.60;79.20;;;-1.78;64.55;95341.47;5065807;28;20258;-82
2021/01/16 09:04:41;;;;;;;10.18;6.70;;;-0.60;79.00;;;-1.70;64.46;95345.25;5064505;28;20302;-83
2021/01/16 09:07:17;;;;;;;11.30;7.07;;;-0.60;79.10;;;-1.63;64.52;95351.63;5051010;28;20594;-83
2021/01/16 09:09:55;;;;;;;11.68;6.95;;;-0.50;78.90;;;-1.64;64.05;95348.22;5034602;28;20865;-83
2021/01/16 09:12:35;;;;;;;9.95;6.43;;;-0.50;78.70;;;-1.62;64.13;95350.72;5068740;28;20341;-84
2021/01/16 09:15:21;;;;;;;11.25;6.55;;;-0.50;78.00;;;-1.63;63.87;95351.63;5032198;28;20219;-84
2021/01/16 09:18:09;;;;;;;10.13;6.13;;;-0.40;78.40;;;-1.65;64.03;95344.03;5068867;28;20196;-85
2021/01/16 09:20:43;;;;;;;8.95;6.03;;;-0.40;78.20;;;-1.55;64.34;95345.94;5031293;28;20220;-85
2021/01/16 09:23:25;;;;;;;9.05;6.68;;;-0.40;78.70;;;-1.48;64.17;95352.31;5049142;28;20280;-84
2021/01/16 09:26:03;;;;;;;8.60;6.00;;;-0.40;78.50;;;-1.41;64.13;95350.97;5055241;28;20224;-83
2021/01/16 09:29:00;;;;;;;9.35;6.28;;;-0.40;78.60;;;-1.40;63.44;95346.63;5051396;28;20654;-83
2021/01/16 09:31:43;;;;;;;10.38;6.22;;;-0.30;78.40;;;-1.41;63.47;95350.16;5034786;28;20260;-84
2021/01/16 09:34:13;;;;;;;9.13;6.18;;;-0.30;78.20;;;-1.44;63.28;95340.91;5048204;28;20204;-83
2021/01/16 09:36:59;;;;;;;8.48;5.78;;;-0.30;78.20;;;-1.37;63.51;95343.84;5041706;28;20213;-84
2021/01/16 09:39:28;;;;;;;10.25;6.75;;;-0.30;78.30;;;-1.37;63.58;95349.81;5049257;28;20223;-85
2021/01/16 09:41:58;;;;;;;9.15;6.50;;;-0.30;78.30;;;-1.37;63.24;95352.38;5037406;28;20205;-83
2021/01/16 09:44:43;;;;;;;9.15;6.53;;;-0.20;78.30;;;-1.39;63.46;95349.09;5012307;28;20689;-84
2021/01/16 09:47:25;;;;;;;9.70;6.25;;;-0.20;78.00;;;-1.35;63.57;95342.00;5042148;28;20250;-83
2021/01/16 09:50:15;;;;;;;9.57;6.10;;;-0.20;77.80;;;-1.33;63.10;95340.94;5049056;28;20254;-83
2021/01/16 09:52:55;;;;;;;10.07;6.35;;;-0.20;78.20;;;-1.39;63.04;95327.69;5033018;28;20228;-83
2021/01/16 09:55:31;;;;;;;9.35;6.40;;;-0.20;77.90;;;-1.35;63.24;95342.81;5036005;28;20231;-83
2021/01/16 09:58:01;;;;;;;10.70;6.78;;;-0.20;77.90;;;-1.36;63.19;95336.00;5029812;28;20590;-84
2021/01/16 10:00:36;;;;;;;9.40;6.43;;;-0.20;77.90;;;-1.34;63.05;95333.34;5050808;28;20318;-83
2021/01/16 10:03:04;;;;;;;8.65;6.30;;;-0.20;78.00;;;-1.25;63.13;95331.88;5032646;28;20205;-83
2021/01/16 10:05:42;;;;;;;9.63;6.03;;;-0.20;78.10;;;-1.26;63.03;95318.16;5041884;28;20596;-83
2021/01/16 10:08:27;;;;;;;12.20;7.10;;;-0.20;77.80;;;-1.27;62.96;95313.94;5051132;28;20196;-84
2021/01/16 10:10:55;;;;;;;8.80;5.90;;;-0.20;77.80;;;-1.20;63.36;95314.34;5033717;28;20279;-82
2021/01/16 10:13:34;;;;;;;9.98;6.75;;;-0.10;78.20;;;-1.11;63.31;95313.69;5048601;28;20212;-83
2021/01/16 10:16:33;;;;;;;9.15;6.53;;;-0.10;78.10;;;-1.02;63.36;95301.91;5050441;28;20262;-83
2021/01/16 10:19:03;;;;;;;9.70;6.50;;;0.00;78.10;;;-0.95;62.96;95308.25;5067312;28;20271;-83
2021/01/16 10:21:31;;;;;;;8.23;5.80;;;0.00;78.30;;;-0.96;62.81;95311.75;5017518;28;20228;-82
2021/01/16 10:24:14;;;;;;;9.55;6.68;;;0.10;78.20;;;-1.02;61.73;95297.56;5034714;28;20242;-83
2021/01/16 10:26:44;;;;;;;9.85;6.57;;;0.10;77.70;;;-1.08;61.87;95286.91;5033352;28;20206;-83
2021/01/16 10:29:17;;;;;;;9.50;6.10;;;0.10;77.70;;;-1.16;61.86;95288.28;5083518;28;20586;-83
2021/01/16 10:31:45;;;;;;;9.45;6.18;;;0.10;77.40;;;-1.21;62.15;95274.09;5050432;28;20223;-79
2021/01/16 10:34:17;;;;;;;10.52;6.65;;;0.10;77.60;;;-1.17;61.80;95275.53;5034439;28;20199;-83
2021/01/16 10:36:45;;;;;;;8.65;6.20;;;0.00;77.50;;;-1.17;62.50;95278.09;5017404;28;20195;-82
2021/01/16 10:39:15;;;;;;;9.10;6.32;;;0.00;77.60;;;-1.23;62.11;95261.34;5035177;28;20291;-82
2021/01/16 10:41:45;;;;;;;10.32;6.55;;;0.00;77.40;;;-1.17;62.16;95266.03;5063861;28;20200;-83